sensor_id;sensor_type;location;lat;lon;timestamp;P1;durP1;ratioP1;P2;durP2;ratioP2
10463;SDS011;5279;42.048;24.638;2023-06-04T00:00:14;5.43;;;4.10;;
10463;SDS011;5279;42.048;24.638;2023-06-04T00:02:42;4.37;;;3.97;;
10463;SDS011;5279;42.048;24.638;2023-06-04T00:05:09;5.47;;;3.57;;
10463;SDS011;5279;42.048;24.638;2023-06-04T00:07:37;4.63;;;4.20;;
10463;SDS011;5279;42.048;24.638;2023-06-04T00:10:04;4.50;;;3.83;;
10463;SDS011;5279;42.048;24.638;2023-06-04T00:12:32;5.10;;;3.53;;
10463;SDS011;5279;42.048;24.638;2023-06-04T00:14:59;4.40;;;4.00;;
10463;SDS011;5279;42.048;24.638;2023-06-04T00:17:26;3.83;;;3.47;;
10463;SDS011;5279;42.048;24.638;2023-06-04T00:19:53;6.40;;;5.17;;
10463;SDS011;5279;42.048;24.638;2023-06-04T00:22:21;4.10;;;3.70;;
10463;SDS011;5279;42.048;24.638;2023-06-04T00:24:51;4.90;;;4.20;;
10463;SDS011;5279;42.048;24.638;2023-06-04T00:27:18;4.93;;;4.33;;
10463;SDS011;5279;42.048;24.638;2023-06-04T00:29:45;5.67;;;4.80;;
10463;SDS011;5279;42.048;24.638;2023-06-04T00:32:12;8.20;;;4.43;;
10463;SDS011;5279;42.048;24.638;2023-06-04T00:34:40;5.53;;;4.40;;
10463;SDS011;5279;42.048;24.638;2023-06-04T00:37:07;6.57;;;4.50;;
10463;SDS011;5279;42.048;24.638;2023-06-04T00:39:34;5.10;;;4.70;;
10463;SDS011;5279;42.048;24.638;2023-06-04T00:42:03;4.57;;;4.17;;
10463;SDS011;5279;42.048;24.638;2023-06-04T00:44:30;4.57;;;4.17;;
10463;SDS011;5279;42.048;24.638;2023-06-04T00:46:58;4.93;;;4.53;;
10463;SDS011;5279;42.048;24.638;2023-06-04T00:49:26;6.37;;;4.13;;
10463;SDS011;5279;42.048;24.638;2023-06-04T00:51:55;6.27;;;3.90;;
10463;SDS011;5279;42.048;24.638;2023-06-04T00:54:22;6.10;;;4.47;;
10463;SDS011;5279;42.048;24.638;2023-06-04T00:56:51;4.37;;;3.97;;
10463;SDS011;5279;42.048;24.638;2023-06-04T00:59:20;5.67;;;4.77;;
10463;SDS011;5279;42.048;24.638;2023-06-04T01:01:49;5.00;;;4.57;;
10463;SDS011;5279;42.048;24.638;2023-06-04T01:04:24;4.53;;;4.10;;
10463;SDS011;5279;42.048;24.638;2023-06-04T01:06:56;5.30;;;4.83;;
10463;SDS011;5279;42.048;24.638;2023-06-04T01:09:24;5.37;;;4.87;;
10463;SDS011;5279;42.048;24.638;2023-06-04T01:11:53;6.17;;;5.37;;
10463;SDS011;5279;42.048;24.638;2023-06-04T01:14:24;8.03;;;4.90;;
10463;SDS011;5279;42.048;24.638;2023-06-04T01:16:52;5.13;;;4.63;;
10463;SDS011;5279;42.048;24.638;2023-06-04T01:19:36;4.83;;;4.37;;
10463;SDS011;5279;42.048;24.638;2023-06-04T01:22:17;4.47;;;3.83;;
10463;SDS011;5279;42.048;24.638;2023-06-04T01:24:55;4.83;;;4.33;;
10463;SDS011;5279;42.048;24.638;2023-06-04T01:27:29;4.70;;;4.00;;
10463;SDS011;5279;42.048;24.638;2023-06-04T01:29:58;4.80;;;4.27;;
10463;SDS011;5279;42.048;24.638;2023-06-04T01:32:26;5.30;;;4.17;;
10463;SDS011;5279;42.048;24.638;2023-06-04T01:34:53;5.17;;;4.30;;
10463;SDS011;5279;42.048;24.638;2023-06-04T01:37:21;4.70;;;4.30;;
10463;SDS011;5279;42.048;24.638;2023-06-04T01:39:48;4.97;;;4.40;;
10463;SDS011;5279;42.048;24.638;2023-06-04T01:42:16;5.97;;;5.03;;
10463;SDS011;5279;42.048;24.638;2023-06-04T01:44:43;4.87;;;4.37;;
10463;SDS011;5279;42.048;24.638;2023-06-04T01:47:11;5.03;;;4.53;;
10463;SDS011;5279;42.048;24.638;2023-06-04T01:49:39;4.40;;;4.00;;
10463;SDS011;5279;42.048;24.638;2023-06-04T01:52:07;6.47;;;4.47;;
10463;SDS011;5279;42.048;24.638;2023-06-04T01:54:37;4.53;;;4.13;;
10463;SDS011;5279;42.048;24.638;2023-06-04T01:57:04;4.57;;;4.17;;
10463;SDS011;5279;42.048;24.638;2023-06-04T01:59:32;4.90;;;4.30;;
10463;SDS011;5279;42.048;24.638;2023-06-04T02:01:59;5.00;;;4.50;;
10463;SDS011;5279;42.048;24.638;2023-06-04T02:04:29;4.90;;;4.40;;
10463;SDS011;5279;42.048;24.638;2023-06-04T02:06:56;6.73;;;4.90;;
10463;SDS011;5279;42.048;24.638;2023-06-04T02:09:24;5.47;;;5.00;;
10463;SDS011;5279;42.048;24.638;2023-06-04T02:11:52;6.40;;;5.33;;
10463;SDS011;5279;42.048;24.638;2023-06-04T02:14:20;5.90;;;5.10;;
10463;SDS011;5279;42.048;24.638;2023-06-04T02:16:48;4.83;;;4.33;;
10463;SDS011;5279;42.048;24.638;2023-06-04T02:19:15;5.67;;;4.57;;
10463;SDS011;5279;42.048;24.638;2023-06-04T02:21:45;5.00;;;4.60;;
10463;SDS011;5279;42.048;24.638;2023-06-04T02:24:12;4.93;;;4.53;;
10463;SDS011;5279;42.048;24.638;2023-06-04T02:26:39;4.90;;;4.43;;
10463;SDS011;5279;42.048;24.638;2023-06-04T02:29:07;5.60;;;4.33;;
10463;SDS011;5279;42.048;24.638;2023-06-04T02:31:34;5.10;;;4.60;;
10463;SDS011;5279;42.048;24.638;2023-06-04T02:34:02;5.07;;;4.47;;
10463;SDS011;5279;42.048;24.638;2023-06-04T02:36:31;5.67;;;4.80;;
10463;SDS011;5279;42.048;24.638;2023-06-04T02:39:00;6.10;;;4.30;;
10463;SDS011;5279;42.048;24.638;2023-06-04T02:41:28;4.57;;;4.10;;
10463;SDS011;5279;42.048;24.638;2023-06-04T02:43:55;4.70;;;4.30;;
10463;SDS011;5279;42.048;24.638;2023-06-04T02:46:22;5.40;;;4.90;;
10463;SDS011;5279;42.048;24.638;2023-06-04T02:48:49;4.80;;;4.40;;
10463;SDS011;5279;42.048;24.638;2023-06-04T02:51:16;4.37;;;3.97;;
10463;SDS011;5279;42.048;24.638;2023-06-04T02:53:43;5.07;;;4.53;;
10463;SDS011;5279;42.048;24.638;2023-06-04T02:56:12;4.43;;;4.03;;
10463;SDS011;5279;42.048;24.638;2023-06-04T02:58:48;5.47;;;4.43;;
10463;SDS011;5279;42.048;24.638;2023-06-04T03:01:17;4.80;;;4.20;;
10463;SDS011;5279;42.048;24.638;2023-06-04T03:03:46;5.50;;;4.60;;
10463;SDS011;5279;42.048;24.638;2023-06-04T03:06:13;5.50;;;4.37;;
10463;SDS011;5279;42.048;24.638;2023-06-04T03:08:41;4.93;;;4.40;;
10463;SDS011;5279;42.048;24.638;2023-06-04T03:11:08;5.60;;;4.77;;
10463;SDS011;5279;42.048;24.638;2023-06-04T03:13:37;4.57;;;4.13;;
10463;SDS011;5279;42.048;24.638;2023-06-04T03:16:04;4.37;;;3.97;;
10463;SDS011;5279;42.048;24.638;2023-06-04T03:18:34;5.00;;;4.60;;
10463;SDS011;5279;42.048;24.638;2023-06-04T03:21:03;4.30;;;3.90;;
10463;SDS011;5279;42.048;24.638;2023-06-04T03:23:30;4.60;;;4.20;;
10463;SDS011;5279;42.048;24.638;2023-06-04T03:25:57;4.40;;;4.00;;
10463;SDS011;5279;42.048;24.638;2023-06-04T03:28:25;4.40;;;4.00;;
10463;SDS011;5279;42.048;24.638;2023-06-04T03:30:54;4.83;;;4.43;;
10463;SDS011;5279;42.048;24.638;2023-06-04T03:33:22;5.23;;;4.23;;
10463;SDS011;5279;42.048;24.638;2023-06-04T03:35:49;4.90;;;4.40;;
10463;SDS011;5279;42.048;24.638;2023-06-04T03:38:17;5.33;;;4.27;;
10463;SDS011;5279;42.048;24.638;2023-06-04T03:40:45;6.00;;;4.30;;
10463;SDS011;5279;42.048;24.638;2023-06-04T03:43:12;5.20;;;4.30;;
10463;SDS011;5279;42.048;24.638;2023-06-04T03:45:39;5.03;;;3.77;;
10463;SDS011;5279;42.048;24.638;2023-06-04T03:48:07;4.83;;;4.30;;
10463;SDS011;5279;42.048;24.638;2023-06-04T03:50:35;4.60;;;4.20;;
10463;SDS011;5279;42.048;24.638;2023-06-04T03:53:02;5.03;;;4.47;;
10463;SDS011;5279;42.048;24.638;2023-06-04T03:55:30;6.83;;;4.43;;
10463;SDS011;5279;42.048;24.638;2023-06-04T03:57:58;5.10;;;4.60;;
10463;SDS011;5279;42.048;24.638;2023-06-04T04:00:26;4.67;;;4.27;;
10463;SDS011;5279;42.048;24.638;2023-06-04T04:02:53;5.13;;;4.30;;
10463;SDS011;5279;42.048;24.638;2023-06-04T04:05:23;4.30;;;4.00;;
10463;SDS011;5279;42.048;24.638;2023-06-04T04:07:50;4.17;;;3.87;;
10463;SDS011;5279;42.048;24.638;2023-06-04T04:10:17;4.90;;;4.40;;
10463;SDS011;5279;42.048;24.638;2023-06-04T04:12:47;4.53;;;4.13;;
10463;SDS011;5279;42.048;24.638;2023-06-04T04:15:16;5.17;;;4.50;;
10463;SDS011;5279;42.048;24.638;2023-06-04T04:17:44;6.50;;;4.80;;
10463;SDS011;5279;42.048;24.638;2023-06-04T04:20:11;5.00;;;4.60;;
10463;SDS011;5279;42.048;24.638;2023-06-04T04:22:41;5.00;;;4.60;;
10463;SDS011;5279;42.048;24.638;2023-06-04T04:25:08;4.73;;;4.23;;
10463;SDS011;5279;42.048;24.638;2023-06-04T04:27:36;4.93;;;4.43;;
10463;SDS011;5279;42.048;24.638;2023-06-04T04:30:06;4.70;;;4.30;;
10463;SDS011;5279;42.048;24.638;2023-06-04T04:32:34;4.50;;;4.10;;
10463;SDS011;5279;42.048;24.638;2023-06-04T04:35:04;5.37;;;4.50;;
10463;SDS011;5279;42.048;24.638;2023-06-04T04:37:33;4.57;;;4.17;;
10463;SDS011;5279;42.048;24.638;2023-06-04T04:40:07;5.03;;;4.53;;
10463;SDS011;5279;42.048;24.638;2023-06-04T04:42:37;4.87;;;4.20;;
10463;SDS011;5279;42.048;24.638;2023-06-04T04:45:04;5.60;;;4.33;;
10463;SDS011;5279;42.048;24.638;2023-06-04T04:47:32;5.33;;;4.80;;
10463;SDS011;5279;42.048;24.638;2023-06-04T04:49:59;5.77;;;4.83;;
10463;SDS011;5279;42.048;24.638;2023-06-04T04:52:26;5.80;;;5.23;;
10463;SDS011;5279;42.048;24.638;2023-06-04T04:54:53;5.17;;;4.77;;
10463;SDS011;5279;42.048;24.638;2023-06-04T04:57:24;6.70;;;4.80;;
10463;SDS011;5279;42.048;24.638;2023-06-04T04:59:51;5.77;;;5.13;;
10463;SDS011;5279;42.048;24.638;2023-06-04T05:02:18;5.43;;;4.93;;
10463;SDS011;5279;42.048;24.638;2023-06-04T05:04:45;7.03;;;5.23;;
10463;SDS011;5279;42.048;24.638;2023-06-04T05:07:15;8.27;;;5.47;;
10463;SDS011;5279;42.048;24.638;2023-06-04T05:09:41;5.60;;;4.80;;
10463;SDS011;5279;42.048;24.638;2023-06-04T05:12:09;4.93;;;4.53;;
10463;SDS011;5279;42.048;24.638;2023-06-04T05:14:37;4.87;;;4.43;;
10463;SDS011;5279;42.048;24.638;2023-06-04T05:17:05;7.27;;;5.00;;
10463;SDS011;5279;42.048;24.638;2023-06-04T05:19:35;5.80;;;5.20;;
10463;SDS011;5279;42.048;24.638;2023-06-04T05:22:03;5.47;;;4.97;;
10463;SDS011;5279;42.048;24.638;2023-06-04T05:24:31;5.33;;;4.83;;
10463;SDS011;5279;42.048;24.638;2023-06-04T05:26:58;5.10;;;4.60;;
10463;SDS011;5279;42.048;24.638;2023-06-04T05:29:26;6.30;;;4.60;;
10463;SDS011;5279;42.048;24.638;2023-06-04T05:31:54;5.40;;;4.90;;
10463;SDS011;5279;42.048;24.638;2023-06-04T05:34:22;5.00;;;4.50;;
10463;SDS011;5279;42.048;24.638;2023-06-04T05:36:50;5.33;;;4.83;;
10463;SDS011;5279;42.048;24.638;2023-06-04T05:39:17;5.60;;;5.10;;
10463;SDS011;5279;42.048;24.638;2023-06-04T05:41:44;5.30;;;4.80;;
10463;SDS011;5279;42.048;24.638;2023-06-04T05:44:11;4.90;;;4.50;;
10463;SDS011;5279;42.048;24.638;2023-06-04T05:46:38;5.20;;;4.70;;
10463;SDS011;5279;42.048;24.638;2023-06-04T05:49:07;5.27;;;4.77;;
10463;SDS011;5279;42.048;24.638;2023-06-04T05:51:34;8.03;;;5.50;;
10463;SDS011;5279;42.048;24.638;2023-06-04T05:54:01;5.50;;;5.00;;
10463;SDS011;5279;42.048;24.638;2023-06-04T05:56:29;4.97;;;4.47;;
10463;SDS011;5279;42.048;24.638;2023-06-04T05:58:56;4.93;;;4.53;;
10463;SDS011;5279;42.048;24.638;2023-06-04T06:01:24;6.67;;;4.60;;
10463;SDS011;5279;42.048;24.638;2023-06-04T06:03:51;5.20;;;4.70;;
10463;SDS011;5279;42.048;24.638;2023-06-04T06:06:20;6.53;;;4.93;;
10463;SDS011;5279;42.048;24.638;2023-06-04T06:08:48;5.33;;;4.77;;
10463;SDS011;5279;42.048;24.638;2023-06-04T06:11:15;4.90;;;4.50;;
10463;SDS011;5279;42.048;24.638;2023-06-04T06:13:43;5.50;;;4.90;;
10463;SDS011;5279;42.048;24.638;2023-06-04T06:16:10;7.03;;;5.00;;
10463;SDS011;5279;42.048;24.638;2023-06-04T06:18:37;4.77;;;4.27;;
10463;SDS011;5279;42.048;24.638;2023-06-04T06:21:04;5.20;;;4.40;;
10463;SDS011;5279;42.048;24.638;2023-06-04T06:23:32;6.83;;;4.57;;
10463;SDS011;5279;42.048;24.638;2023-06-04T06:26:01;4.47;;;4.07;;
10463;SDS011;5279;42.048;24.638;2023-06-04T06:28:33;5.87;;;4.87;;
10463;SDS011;5279;42.048;24.638;2023-06-04T06:31:01;5.03;;;4.40;;
10463;SDS011;5279;42.048;24.638;2023-06-04T06:33:28;4.13;;;3.80;;
10463;SDS011;5279;42.048;24.638;2023-06-04T06:35:56;5.73;;;5.20;;
10463;SDS011;5279;42.048;24.638;2023-06-04T06:38:25;8.03;;;4.60;;
10463;SDS011;5279;42.048;24.638;2023-06-04T06:40:53;5.13;;;4.63;;
10463;SDS011;5279;42.048;24.638;2023-06-04T06:43:29;6.33;;;4.70;;
10463;SDS011;5279;42.048;24.638;2023-06-04T06:45:57;5.00;;;4.50;;
10463;SDS011;5279;42.048;24.638;2023-06-04T06:48:24;4.97;;;4.50;;
10463;SDS011;5279;42.048;24.638;2023-06-04T06:50:50;5.30;;;4.80;;
10463;SDS011;5279;42.048;24.638;2023-06-04T06:53:17;7.60;;;4.90;;
10463;SDS011;5279;42.048;24.638;2023-06-04T06:55:44;4.83;;;4.37;;
10463;SDS011;5279;42.048;24.638;2023-06-04T06:58:13;6.67;;;4.77;;
10463;SDS011;5279;42.048;24.638;2023-06-04T07:00:40;5.20;;;4.53;;
10463;SDS011;5279;42.048;24.638;2023-06-04T07:03:07;4.63;;;4.23;;
10463;SDS011;5279;42.048;24.638;2023-06-04T07:05:34;4.67;;;4.27;;
10463;SDS011;5279;42.048;24.638;2023-06-04T07:08:01;5.10;;;4.50;;
10463;SDS011;5279;42.048;24.638;2023-06-04T07:10:28;5.33;;;4.70;;
10463;SDS011;5279;42.048;24.638;2023-06-04T07:12:55;7.17;;;4.80;;
10463;SDS011;5279;42.048;24.638;2023-06-04T07:15:23;5.47;;;4.97;;
10463;SDS011;5279;42.048;24.638;2023-06-04T07:17:50;5.30;;;4.80;;
10463;SDS011;5279;42.048;24.638;2023-06-04T07:20:17;6.37;;;5.23;;
10463;SDS011;5279;42.048;24.638;2023-06-04T07:22:44;5.73;;;5.23;;
10463;SDS011;5279;42.048;24.638;2023-06-04T07:25:11;6.57;;;5.30;;
10463;SDS011;5279;42.048;24.638;2023-06-04T07:27:38;6.10;;;5.53;;
10463;SDS011;5279;42.048;24.638;2023-06-04T07:30:06;7.67;;;6.20;;
10463;SDS011;5279;42.048;24.638;2023-06-04T07:32:36;5.67;;;5.17;;
10463;SDS011;5279;42.048;24.638;2023-06-04T07:35:05;5.70;;;5.07;;
10463;SDS011;5279;42.048;24.638;2023-06-04T07:37:33;6.60;;;5.73;;
10463;SDS011;5279;42.048;24.638;2023-06-04T07:40:00;5.60;;;5.10;;
10463;SDS011;5279;42.048;24.638;2023-06-04T07:42:27;5.30;;;4.80;;
10463;SDS011;5279;42.048;24.638;2023-06-04T07:44:54;5.60;;;4.80;;
10463;SDS011;5279;42.048;24.638;2023-06-04T07:47:21;5.47;;;4.70;;
10463;SDS011;5279;42.048;24.638;2023-06-04T07:49:50;7.03;;;4.83;;
10463;SDS011;5279;42.048;24.638;2023-06-04T07:52:17;6.40;;;4.67;;
10463;SDS011;5279;42.048;24.638;2023-06-04T07:54:44;5.23;;;4.43;;
10463;SDS011;5279;42.048;24.638;2023-06-04T07:57:11;6.13;;;4.87;;
10463;SDS011;5279;42.048;24.638;2023-06-04T07:59:38;5.93;;;5.33;;
10463;SDS011;5279;42.048;24.638;2023-06-04T08:02:05;7.23;;;5.60;;
10463;SDS011;5279;42.048;24.638;2023-06-04T08:04:32;6.73;;;5.37;;
10463;SDS011;5279;42.048;24.638;2023-06-04T08:07:00;5.33;;;4.83;;
10463;SDS011;5279;42.048;24.638;2023-06-04T08:09:27;5.63;;;4.60;;
10463;SDS011;5279;42.048;24.638;2023-06-04T08:11:54;13.70;;;12.23;;
10463;SDS011;5279;42.048;24.638;2023-06-04T08:14:21;13.37;;;12.07;;
10463;SDS011;5279;42.048;24.638;2023-06-04T08:16:49;11.10;;;9.47;;
10463;SDS011;5279;42.048;24.638;2023-06-04T08:19:17;7.17;;;5.77;;
10463;SDS011;5279;42.048;24.638;2023-06-04T08:21:44;8.77;;;6.60;;
10463;SDS011;5279;42.048;24.638;2023-06-04T08:24:13;5.47;;;4.50;;
10463;SDS011;5279;42.048;24.638;2023-06-04T08:26:40;10.93;;;9.83;;
10463;SDS011;5279;42.048;24.638;2023-06-04T08:29:07;6.83;;;6.17;;
10463;SDS011;5279;42.048;24.638;2023-06-04T08:31:34;5.53;;;5.03;;
10463;SDS011;5279;42.048;24.638;2023-06-04T08:34:01;8.40;;;5.73;;
10463;SDS011;5279;42.048;24.638;2023-06-04T08:36:30;5.57;;;5.10;;
10463;SDS011;5279;42.048;24.638;2023-06-04T08:38:58;4.97;;;4.53;;
10463;SDS011;5279;42.048;24.638;2023-06-04T08:41:28;5.70;;;5.17;;
10463;SDS011;5279;42.048;24.638;2023-06-04T08:43:56;6.60;;;5.73;;
10463;SDS011;5279;42.048;24.638;2023-06-04T08:46:26;6.17;;;4.40;;
10463;SDS011;5279;42.048;24.638;2023-06-04T08:48:54;8.37;;;4.33;;
10463;SDS011;5279;42.048;24.638;2023-06-04T08:51:26;7.13;;;5.53;;
10463;SDS011;5279;42.048;24.638;2023-06-04T08:53:54;4.70;;;4.30;;
10463;SDS011;5279;42.048;24.638;2023-06-04T08:56:22;4.50;;;4.00;;
10463;SDS011;5279;42.048;24.638;2023-06-04T08:58:53;11.07;;;8.83;;
10463;SDS011;5279;42.048;24.638;2023-06-04T09:01:26;21.67;;;14.70;;
10463;SDS011;5279;42.048;24.638;2023-06-04T09:03:53;8.90;;;6.70;;
10463;SDS011;5279;42.048;24.638;2023-06-04T09:06:22;4.80;;;4.37;;
10463;SDS011;5279;42.048;24.638;2023-06-04T09:08:51;3.83;;;3.40;;
10463;SDS011;5279;42.048;24.638;2023-06-04T09:11:19;4.43;;;3.20;;
10463;SDS011;5279;42.048;24.638;2023-06-04T09:13:47;8.03;;;6.10;;
10463;SDS011;5279;42.048;24.638;2023-06-04T09:16:18;7.33;;;3.90;;
10463;SDS011;5279;42.048;24.638;2023-06-04T09:18:45;5.20;;;4.47;;
10463;SDS011;5279;42.048;24.638;2023-06-04T09:21:12;4.93;;;4.30;;
10463;SDS011;5279;42.048;24.638;2023-06-04T09:23:44;4.73;;;3.43;;
10463;SDS011;5279;42.048;24.638;2023-06-04T09:26:12;4.27;;;3.73;;
10463;SDS011;5279;42.048;24.638;2023-06-04T09:28:39;3.47;;;3.17;;
10463;SDS011;5279;42.048;24.638;2023-06-04T09:31:07;3.20;;;2.93;;
10463;SDS011;5279;42.048;24.638;2023-06-04T09:33:42;3.73;;;3.13;;
10463;SDS011;5279;42.048;24.638;2023-06-04T09:36:10;4.43;;;2.80;;
10463;SDS011;5279;42.048;24.638;2023-06-04T09:38:37;2.63;;;2.40;;
10463;SDS011;5279;42.048;24.638;2023-06-04T09:41:10;4.60;;;3.00;;
10463;SDS011;5279;42.048;24.638;2023-06-04T09:43:37;4.17;;;2.90;;
10463;SDS011;5279;42.048;24.638;2023-06-04T09:46:11;2.93;;;2.67;;
10463;SDS011;5279;42.048;24.638;2023-06-04T09:48:38;3.00;;;2.70;;
10463;SDS011;5279;42.048;24.638;2023-06-04T09:51:07;3.70;;;2.77;;
10463;SDS011;5279;42.048;24.638;2023-06-04T09:53:35;3.90;;;2.67;;
10463;SDS011;5279;42.048;24.638;2023-06-04T09:56:03;5.37;;;3.20;;
10463;SDS011;5279;42.048;24.638;2023-06-04T09:58:31;3.65;;;2.90;;
10463;SDS011;5279;42.048;24.638;2023-06-04T10:00:59;3.95;;;2.88;;
10463;SDS011;5279;42.048;24.638;2023-06-04T10:03:29;3.30;;;2.67;;
10463;SDS011;5279;42.048;24.638;2023-06-04T10:06:02;4.43;;;3.20;;
10463;SDS011;5279;42.048;24.638;2023-06-04T10:08:31;3.20;;;2.90;;
10463;SDS011;5279;42.048;24.638;2023-06-04T10:11:00;2.70;;;2.50;;
10463;SDS011;5279;42.048;24.638;2023-06-04T10:13:29;3.07;;;2.77;;
10463;SDS011;5279;42.048;24.638;2023-06-04T10:15:57;5.00;;;2.87;;
10463;SDS011;5279;42.048;24.638;2023-06-04T10:18:26;2.70;;;2.50;;
10463;SDS011;5279;42.048;24.638;2023-06-04T10:20:54;4.38;;;2.58;;
10463;SDS011;5279;42.048;24.638;2023-06-04T10:23:22;2.87;;;2.63;;
10463;SDS011;5279;42.048;24.638;2023-06-04T10:25:51;2.78;;;2.58;;
10463;SDS011;5279;42.048;24.638;2023-06-04T10:28:19;3.50;;;3.20;;
10463;SDS011;5279;42.048;24.638;2023-06-04T10:30:47;3.45;;;2.70;;
10463;SDS011;5279;42.048;24.638;2023-06-04T10:33:16;4.30;;;3.20;;
10463;SDS011;5279;42.048;24.638;2023-06-04T10:35:45;3.38;;;3.08;;
10463;SDS011;5279;42.048;24.638;2023-06-04T10:38:13;3.50;;;3.20;;
10463;SDS011;5279;42.048;24.638;2023-06-04T10:40:41;3.17;;;2.88;;
10463;SDS011;5279;42.048;24.638;2023-06-04T10:43:10;4.67;;;3.20;;
10463;SDS011;5279;42.048;24.638;2023-06-04T10:45:38;5.10;;;2.90;;
10463;SDS011;5279;42.048;24.638;2023-06-04T10:48:06;4.13;;;3.65;;
10463;SDS011;5279;42.048;24.638;2023-06-04T10:50:35;3.27;;;2.97;;
10463;SDS011;5279;42.048;24.638;2023-06-04T10:53:13;3.38;;;3.08;;
10463;SDS011;5279;42.048;24.638;2023-06-04T10:55:43;3.40;;;3.05;;
10463;SDS011;5279;42.048;24.638;2023-06-04T10:58:12;3.30;;;2.70;;
10463;SDS011;5279;42.048;24.638;2023-06-04T11:00:40;4.82;;;3.40;;
10463;SDS011;5279;42.048;24.638;2023-06-04T11:03:09;6.38;;;2.92;;
10463;SDS011;5279;42.048;24.638;2023-06-04T11:05:36;3.80;;;2.65;;
10463;SDS011;5279;42.048;24.638;2023-06-04T11:08:05;2.80;;;2.50;;
10463;SDS011;5279;42.048;24.638;2023-06-04T11:10:33;2.95;;;2.65;;
10463;SDS011;5279;42.048;24.638;2023-06-04T11:13:01;5.03;;;2.40;;
10463;SDS011;5279;42.048;24.638;2023-06-04T11:15:38;4.25;;;2.30;;
10463;SDS011;5279;42.048;24.638;2023-06-04T11:18:07;2.40;;;2.00;;
10463;SDS011;5279;42.048;24.638;2023-06-04T11:20:35;4.82;;;2.70;;
10463;SDS011;5279;42.048;24.638;2023-06-04T11:23:02;3.05;;;2.20;;
10463;SDS011;5279;42.048;24.638;2023-06-04T11:25:29;5.72;;;2.90;;
10463;SDS011;5279;42.048;24.638;2023-06-04T11:27:58;3.03;;;2.50;;
10463;SDS011;5279;42.048;24.638;2023-06-04T11:30:26;2.30;;;2.10;;
10463;SDS011;5279;42.048;24.638;2023-06-04T11:33:02;2.65;;;2.42;;
10463;SDS011;5279;42.048;24.638;2023-06-04T11:35:30;2.22;;;2.00;;
10463;SDS011;5279;42.048;24.638;2023-06-04T11:37:59;5.35;;;2.70;;
10463;SDS011;5279;42.048;24.638;2023-06-04T11:40:26;2.67;;;2.47;;
10463;SDS011;5279;42.048;24.638;2023-06-04T11:42:53;2.92;;;2.05;;
10463;SDS011;5279;42.048;24.638;2023-06-04T11:45:21;2.67;;;2.47;;
10463;SDS011;5279;42.048;24.638;2023-06-04T11:47:49;4.28;;;2.97;;
10463;SDS011;5279;42.048;24.638;2023-06-04T11:50:20;3.67;;;2.65;;
10463;SDS011;5279;42.048;24.638;2023-06-04T11:52:48;4.38;;;2.90;;
10463;SDS011;5279;42.048;24.638;2023-06-04T11:55:15;3.58;;;3.28;;
10463;SDS011;5279;42.048;24.638;2023-06-04T11:57:45;4.72;;;3.55;;
10463;SDS011;5279;42.048;24.638;2023-06-04T12:00:13;4.00;;;3.60;;
10463;SDS011;5279;42.048;24.638;2023-06-04T12:02:51;3.88;;;3.45;;
10463;SDS011;5279;42.048;24.638;2023-06-04T12:05:22;4.25;;;3.80;;
10463;SDS011;5279;42.048;24.638;2023-06-04T12:07:50;6.03;;;4.18;;
10463;SDS011;5279;42.048;24.638;2023-06-04T12:10:17;4.72;;;4.25;;
10463;SDS011;5279;42.048;24.638;2023-06-04T12:12:45;4.63;;;4.22;;
10463;SDS011;5279;42.048;24.638;2023-06-04T12:15:12;4.88;;;4.13;;
10463;SDS011;5279;42.048;24.638;2023-06-04T12:17:51;7.38;;;4.22;;
10463;SDS011;5279;42.048;24.638;2023-06-04T12:20:18;5.03;;;4.57;;
10463;SDS011;5279;42.048;24.638;2023-06-04T12:22:47;3.80;;;3.50;;
10463;SDS011;5279;42.048;24.638;2023-06-04T12:25:23;4.30;;;3.97;;
10463;SDS011;5279;42.048;24.638;2023-06-04T12:27:52;4.60;;;4.20;;
10463;SDS011;5279;42.048;24.638;2023-06-04T12:30:19;4.38;;;3.97;;
10463;SDS011;5279;42.048;24.638;2023-06-04T12:32:45;4.35;;;4.05;;
10463;SDS011;5279;42.048;24.638;2023-06-04T12:35:15;5.00;;;3.90;;
10463;SDS011;5279;42.048;24.638;2023-06-04T12:37:42;6.85;;;4.53;;
10463;SDS011;5279;42.048;24.638;2023-06-04T12:40:11;3.73;;;3.43;;
10463;SDS011;5279;42.048;24.638;2023-06-04T12:42:39;4.23;;;3.93;;
10463;SDS011;5279;42.048;24.638;2023-06-04T12:45:08;4.27;;;3.97;;
10463;SDS011;5279;42.048;24.638;2023-06-04T12:47:39;5.80;;;4.27;;
10463;SDS011;5279;42.048;24.638;2023-06-04T12:50:07;5.00;;;4.17;;
10463;SDS011;5279;42.048;24.638;2023-06-04T12:52:34;5.60;;;5.10;;
10463;SDS011;5279;42.048;24.638;2023-06-04T12:55:01;5.07;;;4.67;;
10463;SDS011;5279;42.048;24.638;2023-06-04T12:57:29;5.37;;;4.43;;
10463;SDS011;5279;42.048;24.638;2023-06-04T12:59:56;6.53;;;4.27;;
10463;SDS011;5279;42.048;24.638;2023-06-04T13:02:24;4.50;;;4.10;;
10463;SDS011;5279;42.048;24.638;2023-06-04T13:04:51;4.47;;;4.07;;
10463;SDS011;5279;42.048;24.638;2023-06-04T13:07:21;4.87;;;4.47;;
10463;SDS011;5279;42.048;24.638;2023-06-04T13:09:51;4.13;;;3.73;;
10463;SDS011;5279;42.048;24.638;2023-06-04T13:12:18;5.57;;;4.63;;
10463;SDS011;5279;42.048;24.638;2023-06-04T13:14:46;4.40;;;4.00;;
10463;SDS011;5279;42.048;24.638;2023-06-04T13:17:13;4.70;;;4.20;;
10463;SDS011;5279;42.048;24.638;2023-06-04T13:19:40;6.43;;;3.90;;
10463;SDS011;5279;42.048;24.638;2023-06-04T13:22:07;4.53;;;4.03;;
10463;SDS011;5279;42.048;24.638;2023-06-04T13:24:34;5.40;;;3.37;;
10463;SDS011;5279;42.048;24.638;2023-06-04T13:27:01;4.00;;;3.63;;
10463;SDS011;5279;42.048;24.638;2023-06-04T13:29:28;5.30;;;3.00;;
10463;SDS011;5279;42.048;24.638;2023-06-04T13:32:00;4.27;;;3.77;;
10463;SDS011;5279;42.048;24.638;2023-06-04T13:34:27;5.23;;;4.67;;
10463;SDS011;5279;42.048;24.638;2023-06-04T13:36:56;4.97;;;3.73;;
10463;SDS011;5279;42.048;24.638;2023-06-04T13:39:22;5.63;;;3.77;;
10463;SDS011;5279;42.048;24.638;2023-06-04T13:41:49;4.27;;;3.73;;
10463;SDS011;5279;42.048;24.638;2023-06-04T13:44:16;4.30;;;4.00;;
10463;SDS011;5279;42.048;24.638;2023-06-04T13:46:44;4.23;;;3.83;;
10463;SDS011;5279;42.048;24.638;2023-06-04T13:49:12;4.10;;;3.80;;
10463;SDS011;5279;42.048;24.638;2023-06-04T13:51:39;4.13;;;3.77;;
10463;SDS011;5279;42.048;24.638;2023-06-04T13:54:06;4.00;;;3.70;;
10463;SDS011;5279;42.048;24.638;2023-06-04T13:56:33;3.87;;;3.57;;
10463;SDS011;5279;42.048;24.638;2023-06-04T13:59:00;4.33;;;3.53;;
10463;SDS011;5279;42.048;24.638;2023-06-04T14:01:27;3.90;;;3.60;;
10463;SDS011;5279;42.048;24.638;2023-06-04T14:03:54;4.30;;;3.90;;
10463;SDS011;5279;42.048;24.638;2023-06-04T14:06:22;4.27;;;3.87;;
10463;SDS011;5279;42.048;24.638;2023-06-04T14:08:50;4.50;;;4.20;;
10463;SDS011;5279;42.048;24.638;2023-06-04T14:11:19;5.27;;;4.03;;
10463;SDS011;5279;42.048;24.638;2023-06-04T14:13:46;5.43;;;4.13;;
10463;SDS011;5279;42.048;24.638;2023-06-04T14:16:13;7.17;;;4.00;;
10463;SDS011;5279;42.048;24.638;2023-06-04T14:18:40;4.63;;;4.23;;
10463;SDS011;5279;42.048;24.638;2023-06-04T14:21:07;4.20;;;3.80;;
10463;SDS011;5279;42.048;24.638;2023-06-04T14:23:36;4.07;;;3.67;;
10463;SDS011;5279;42.048;24.638;2023-06-04T14:26:03;5.70;;;3.93;;
10463;SDS011;5279;42.048;24.638;2023-06-04T14:28:31;3.83;;;3.40;;
10463;SDS011;5279;42.048;24.638;2023-06-04T14:30:58;4.07;;;3.67;;
10463;SDS011;5279;42.048;24.638;2023-06-04T14:33:25;4.23;;;3.50;;
10463;SDS011;5279;42.048;24.638;2023-06-04T14:35:52;3.67;;;3.30;;
10463;SDS011;5279;42.048;24.638;2023-06-04T14:38:19;5.10;;;3.50;;
10463;SDS011;5279;42.048;24.638;2023-06-04T14:40:47;4.13;;;3.73;;
10463;SDS011;5279;42.048;24.638;2023-06-04T14:43:14;4.07;;;3.67;;
10463;SDS011;5279;42.048;24.638;2023-06-04T14:45:41;6.10;;;3.43;;
10463;SDS011;5279;42.048;24.638;2023-06-04T14:48:08;4.53;;;4.13;;
10463;SDS011;5279;42.048;24.638;2023-06-04T14:50:35;5.17;;;3.53;;
10463;SDS011;5279;42.048;24.638;2023-06-04T14:53:02;3.73;;;3.30;;